Time;durP1;ratioP1;P1;durP2;ratioP2;P2;SDS_P1;SDS_P2;PMS_P1;PMS_P2;Temp;Humidity;BMP_temperature;BMP_pressure;BME280_temperature;BME280_humidity;BME280_pressure;Samples;Min_cycle;Max_cycle;Signal;HPM_P1;HPM_P2
2021/11/16 00:00:16;;;;;;;42.30;21.60;;;;;;;9.56;62.66;97082.75;5071551;28;20189;-68
2021/11/16 00:02:41;;;;;;;38.30;22.17;;;;;;;9.53;63.12;97086.50;5067911;28;20203;-68
2021/11/16 00:05:08;;;;;;;40.03;20.87;;;;;;;9.49;62.66;97085.16;5074199;28;20529;-67
2021/11/16 00:07:33;;;;;;;39.33;19.80;;;;;;;9.65;62.14;97080.09;5068757;28;20183;-67
2021/11/16 00:09:59;;;;;;;35.97;20.93;;;;;;;9.72;62.02;97075.06;5066433;28;20858;-67
2021/11/16 00:12:25;;;;;;;38.20;21.13;;;;;;;9.67;62.24;97078.16;5068369;28;20251;-65
2021/11/16 00:14:51;;;;;;;39.20;20.23;;;;;;;9.68;61.53;97087.66;5067406;28;20190;-67
2021/11/16 00:17:16;;;;;;;39.33;20.20;;;;;;;9.61;62.21;97083.16;5069828;28;20423;-68
2021/11/16 00:19:42;;;;;;;36.00;19.80;;;;;;;9.58;62.03;97088.69;5064888;28;20296;-66
2021/11/16 00:22:15;;;;;;;36.40;20.47;;;;;;;9.60;61.92;97089.34;5067157;28;20186;-66
2021/11/16 00:24:55;;;;;;;35.23;20.37;;;;;;;9.68;61.51;97079.78;5064453;28;20413;-67
2021/11/16 00:27:21;;;;;;;35.87;20.13;;;;;;;9.68;61.49;97084.19;5067584;28;20892;-66
2021/11/16 00:29:47;;;;;;;39.63;21.17;;;;;;;9.72;61.33;97082.94;5066447;28;20432;-67
2021/11/16 00:32:12;;;;;;;38.63;21.23;;;;;;;9.69;61.40;97088.47;5069612;28;20223;-65
2021/11/16 00:34:38;;;;;;;38.57;21.10;;;;;;;9.42;61.80;97082.31;5066968;28;20557;-65
2021/11/16 00:37:04;;;;;;;43.10;21.70;;;;;;;9.45;62.38;97084.63;5032765;28;1080994;-66
2021/11/16 00:39:29;;;;;;;43.53;23.07;;;;;;;9.41;62.42;97082.47;5068023;28;20604;-66
2021/11/16 00:41:55;;;;;;;39.07;21.70;;;;;;;9.36;62.06;97096.00;5068488;28;20501;-66
2021/11/16 00:44:20;;;;;;;42.03;21.80;;;;;;;9.38;62.39;97089.63;5069910;28;20178;-65
2021/11/16 00:46:46;;;;;;;42.53;21.67;;;;;;;8.82;64.50;97086.22;5067620;28;20211;-65
2021/11/16 00:49:12;;;;;;;40.23;23.20;;;;;;;9.27;62.85;97091.63;5069264;28;20215;-66
2021/11/16 00:51:37;;;;;;;40.87;20.83;;;;;;;9.12;63.04;97099.97;5067447;28;20870;-66
2021/11/16 00:54:03;;;;;;;41.87;22.37;;;;;;;9.19;63.35;97097.59;5066212;28;20218;-66
2021/11/16 00:56:28;;;;;;;37.83;20.70;;;;;;;9.34;62.86;97092.69;5072381;28;20189;-66
2021/11/16 00:58:54;;;;;;;41.43;22.23;;;;;;;9.34;62.68;97093.50;5092016;28;20213;-66
2021/11/16 01:01:20;;;;;;;39.00;20.57;;;;;;;9.34;62.59;97093.50;5092418;28;20592;-66
2021/11/16 01:03:45;;;;;;;35.47;20.07;;;;;;;9.33;62.55;97096.28;5089544;28;20197;-67
2021/11/16 01:06:11;;;;;;;39.77;21.37;;;;;;;9.33;63.09;97099.69;5090146;28;20207;-66
2021/11/16 01:08:36;;;;;;;37.33;20.40;;;;;;;8.91;63.69;97103.63;5092488;28;20555;-65
2021/11/16 01:11:02;;;;;;;40.17;21.80;;;;;;;9.16;63.74;97105.72;5084567;28;20201;-66
2021/11/16 01:13:29;;;;;;;37.13;21.50;;;;;;;9.17;63.42;97102.16;5092042;28;20204;-67
2021/11/16 01:15:55;;;;;;;42.80;21.50;;;;;;;9.29;62.92;97100.16;5077000;28;20206;-66
2021/11/16 01:18:22;;;;;;;38.70;21.30;;;;;;;8.75;64.43;97100.84;5091579;28;20469;-66
2021/11/16 01:20:49;;;;;;;36.57;20.77;;;;;;;8.95;64.14;97098.13;5090725;28;20423;-66
2021/11/16 01:23:16;;;;;;;41.27;20.40;;;;;;;8.97;63.53;97102.22;5081425;28;20439;-66
2021/11/16 01:25:44;;;;;;;39.20;21.40;;;;;;;8.61;64.45;97099.47;5091915;28;20455;-67
2021/11/16 01:28:12;;;;;;;37.90;20.63;;;;;;;8.98;64.27;97100.47;5073502;28;20804;-67
2021/11/16 01:30:40;;;;;;;37.43;20.77;;;;;;;9.19;63.78;97097.59;5091648;28;20443;-66
2021/11/16 01:33:09;;;;;;;36.47;19.30;;;;;;;9.35;63.21;97100.38;5091600;28;20440;-66
2021/11/16 01:35:37;;;;;;;37.50;20.43;;;;;;;9.34;62.53;97103.97;5091372;28;20519;-66
2021/11/16 01:38:04;;;;;;;40.03;20.73;;;;;;;8.89;64.59;97099.53;5083099;28;20458;-67
2021/11/16 01:40:31;;;;;;;40.50;21.67;;;;;;;9.31;63.52;97100.81;5088709;28;20428;-65
2021/11/16 01:42:57;;;;;;;36.83;21.17;;;;;;;9.45;62.83;97094.28;5086898;28;20452;-67
2021/11/16 01:45:23;;;;;;;38.00;21.10;;;;;;;9.48;62.92;97091.34;5091721;28;20452;-66
2021/11/16 01:47:49;;;;;;;35.20;19.97;;;;;;;9.38;62.66;97088.81;5091122;28;20427;-68
2021/11/16 01:50:17;;;;;;;35.47;19.63;;;;;;;9.10;63.37;97091.44;5087641;28;20421;-66
2021/11/16 01:52:43;;;;;;;36.33;20.20;;;;;;;8.76;63.85;97092.84;5087484;28;20501;-66
2021/11/16 01:55:10;;;;;;;38.77;20.37;;;;;;;8.55;64.54;97095.66;5091330;28;20914;-66
2021/11/16 01:57:36;;;;;;;37.70;19.70;;;;;;;7.89;67.08;97101.66;5090251;28;20652;-66
2021/11/16 02:00:10;;;;;;;37.77;21.47;;;;;;;8.21;65.68;97093.50;5091122;28;20963;-65
2021/11/16 02:02:36;;;;;;;40.30;21.90;;;;;;;8.42;65.20;97098.56;5091305;28;20442;-67
2021/11/16 02:05:02;;;;;;;39.60;20.50;;;;;;;8.68;64.97;97095.34;5079572;28;20974;-69
2021/11/16 02:07:28;;;;;;;36.77;20.33;;;;;;;8.53;65.27;97084.50;5085223;28;20656;-66
2021/11/16 02:09:53;;;;;;;39.73;20.97;;;;;;;8.65;65.00;97086.94;5091243;28;20416;-66
2021/11/16 02:12:19;;;;;;;39.87;20.20;;;;;;;8.73;65.17;97100.94;5083092;28;20213;-66
2021/11/16 02:14:44;;;;;;;40.90;21.40;;;;;;;8.90;64.11;97088.09;5083368;28;20613;-68
2021/11/16 02:17:10;;;;;;;39.67;21.30;;;;;;;8.50;64.96;97078.75;5090056;28;20204;-67
2021/11/16 02:19:36;;;;;;;33.27;19.37;;;;;;;8.40;65.50;97081.34;5091238;28;20182;-66
2021/11/16 02:22:02;;;;;;;41.73;21.77;;;;;;;8.45;65.08;97082.59;5082851;28;20182;-67
2021/11/16 02:24:27;;;;;;;42.53;22.77;;;;;;;8.49;65.54;97079.72;5086737;28;20203;-68
2021/11/16 02:26:53;;;;;;;39.33;20.23;;;;;;;8.42;65.60;97075.06;5089270;28;20483;-66
2021/11/16 02:29:18;;;;;;;40.53;22.37;;;;;;;8.65;64.84;97071.28;5091461;28;20581;-67
2021/11/16 02:31:45;;;;;;;37.70;19.80;;;;;;;8.59;64.79;97077.91;5091963;28;20173;-67
2021/11/16 02:34:11;;;;;;;40.23;20.57;;;;;;;8.06;66.56;97069.63;5080137;28;20235;-67
2021/11/16 02:36:36;;;;;;;42.97;20.00;;;;;;;7.79;67.33;97071.16;5090888;28;20456;-67
2021/11/16 02:39:05;;;;;;;39.90;21.30;;;;;;;8.34;66.24;97068.88;5090550;28;20484;-68
2021/11/16 02:41:31;;;;;;;41.10;21.63;;;;;;;8.66;65.21;97068.53;5082692;28;20257;-68
2021/11/16 02:43:59;;;;;;;38.37;21.20;;;;;;;8.79;64.79;97062.16;5089373;28;20447;-67
2021/11/16 02:46:26;;;;;;;38.97;20.70;;;;;;;8.85;64.52;97062.41;5082239;28;20444;-67
2021/11/16 02:48:52;;;;;;;41.93;21.30;;;;;;;8.90;63.86;97068.00;5090515;28;20799;-68
2021/11/16 02:51:18;;;;;;;40.33;20.43;;;;;;;8.82;64.23;97054.84;5091211;28;20457;-67
2021/11/16 02:53:43;;;;;;;35.17;20.90;;;;;;;8.31;65.54;97059.56;5090750;28;20209;-68
2021/11/16 02:56:09;;;;;;;42.40;21.07;;;;;;;8.35;65.98;97050.44;5090641;28;20184;-68
2021/11/16 02:58:35;;;;;;;42.73;20.27;;;;;;;8.57;65.00;97058.94;5090412;28;20205;-67
2021/11/16 03:01:06;;;;;;;40.60;22.30;;;;;;;8.87;64.34;97054.41;5090932;28;20565;-66
2021/11/16 03:03:32;;;;;;;42.60;21.40;;;;;;;8.76;64.79;97052.81;5089850;28;20205;-67
2021/11/16 03:05:58;;;;;;;41.20;19.97;;;;;;;8.87;64.51;97059.63;5086992;28;20459;-65
2021/11/16 03:08:26;;;;;;;39.77;22.20;;;;;;;8.97;63.75;97057.78;5064737;28;20194;-66
2021/11/16 03:10:58;;;;;;;37.00;20.73;;;;;;;8.23;65.78;97056.81;5079166;28;20211;-65
2021/11/16 03:13:25;;;;;;;39.73;20.20;;;;;;;8.43;65.82;97054.97;5090281;28;20446;-66
2021/11/16 03:15:51;;;;;;;43.07;20.90;;;;;;;8.55;65.31;97060.88;5090090;28;21071;-65
2021/11/16 03:18:17;;;;;;;41.07;21.50;;;;;;;8.14;66.57;97059.31;5090490;28;20502;-65
2021/11/16 03:20:43;;;;;;;40.40;20.43;;;;;;;8.18;66.78;97059.03;5090315;28;20428;-65
2021/11/16 03:25:37;;;;;;;40.50;21.30;;;;;;;8.10;66.94;97049.28;5083183;28;20209;-67
2021/11/16 03:28:07;;;;;;;37.83;21.07;;;;;;;8.27;66.70;97047.75;5089879;28;20593;-67
2021/11/16 03:30:34;;;;;;;38.33;20.90;;;;;;;8.49;66.09;97045.78;5083785;28;20425;-67
2021/11/16 03:32:59;;;;;;;40.53;20.60;;;;;;;8.13;66.20;97049.81;5091715;28;20443;-67
2021/11/16 03:35:25;;;;;;;42.17;22.40;;;;;;;8.03;66.96;97050.78;5092378;28;20492;-65
2021/11/16 03:37:55;;;;;;;41.20;20.80;;;;;;;8.18;66.25;97043.38;5093556;28;20186;-66
2021/11/16 03:40:22;;;;;;;39.90;19.70;;;;;;;8.31;65.91;97038.66;5092193;28;20181;-68
2021/11/16 03:42:49;;;;;;;41.00;21.03;;;;;;;8.29;66.17;97045.81;5086549;28;20462;-65
2021/11/16 03:45:16;;;;;;;34.87;18.97;;;;;;;8.13;66.60;97038.53;5093692;28;20890;-67
2021/11/16 03:47:42;;;;;;;51.50;21.77;;;;;;;8.43;65.48;97041.91;5093865;28;20427;-66
2021/11/16 03:50:14;;;;;;;51.77;22.90;;;;;;;8.52;65.14;97035.03;5093946;28;20430;-66
2021/11/16 03:52:42;;;;;;;47.80;20.77;;;;;;;8.72;65.06;97033.19;5093459;28;20445;-65
2021/11/16 03:55:11;;;;;;;39.07;20.60;;;;;;;8.59;64.45;97036.94;5097794;28;20770;-67
2021/11/16 03:57:38;;;;;;;43.50;21.20;;;;;;;8.71;64.30;97041.97;5100872;28;20503;-65
2021/11/16 04:00:06;;;;;;;39.03;19.87;;;;;;;8.77;64.10;97038.78;5100209;28;20426;-67
2021/11/16 04:02:31;;;;;;;42.50;19.47;;;;;;;8.78;63.69;97045.66;5089264;28;20530;-66
2021/11/16 04:04:57;;;;;;;41.70;20.77;;;;;;;8.95;63.99;97036.19;5096327;28;20463;-65
2021/11/16 04:07:23;;;;;;;40.97;20.90;;;;;;;9.06;63.83;97033.41;5097363;28;20189;-66
2021/11/16 04:09:48;;;;;;;40.00;20.40;;;;;;;9.12;63.66;97033.78;5093342;28;20539;-67
2021/11/16 04:12:14;;;;;;;40.83;21.37;;;;;;;9.18;63.02;97027.97;5077784;28;20258;-65
2021/11/16 04:14:39;;;;;;;36.73;20.33;;;;;;;9.13;63.62;97032.81;5093293;28;20186;-66
2021/11/16 04:17:05;;;;;;;36.47;19.10;;;;;;;9.15;63.75;97033.50;5093219;28;20597;-66
2021/11/16 04:19:31;;;;;;;33.93;18.93;;;;;;;9.11;62.94;97027.75;5093123;28;20182;-66
2021/11/16 04:21:57;;;;;;;34.00;19.13;;;;;;;9.09;63.34;97029.66;5088318;28;20629;-67
2021/11/16 04:24:22;;;;;;;40.50;20.17;;;;;;;9.07;62.97;97032.41;5080905;28;20185;-66
2021/11/16 04:26:48;;;;;;;37.00;19.00;;;;;;;9.06;62.49;97025.56;5089106;28;20284;-66
2021/11/16 04:29:14;;;;;;;41.30;21.70;;;;;;;9.12;63.05;97028.53;5092931;28;20189;-68
2021/11/16 04:31:39;;;;;;;38.47;20.77;;;;;;;9.16;63.09;97033.34;5064232;28;20178;-67
2021/11/16 04:34:06;;;;;;;35.13;20.37;;;;;;;9.22;62.67;97026.69;5072139;28;20202;-68
2021/11/16 04:36:33;;;;;;;33.87;18.70;;;;;;;9.18;63.15;97020.13;5080868;28;20575;-67
2021/11/16 04:38:59;;;;;;;37.10;19.70;;;;;;;9.09;63.27;97021.00;5072461;28;20432;-65
2021/11/16 04:41:24;;;;;;;40.83;20.67;;;;;;;9.02;63.53;97021.59;5054393;28;20427;-66
2021/11/16 04:43:50;;;;;;;38.57;21.10;;;;;;;9.01;63.25;97022.56;5095110;28;20213;-69
2021/11/16 04:46:20;;;;;;;41.43;21.33;;;;;;;9.01;63.37;97019.94;5089130;28;20194;-67
2021/11/16 04:49:06;;;;;;;44.40;22.37;;;;;;;8.60;64.47;97022.91;5080589;28;20793;-66
2021/11/16 04:59:41;;;;;;;42.70;21.90;;;;;;;8.69;65.26;97038.69;5064252;28;20421;-67
2021/11/16 05:04:51;;;;;;;39.63;20.20;;;;;;;8.52;64.79;97048.09;5071712;28;20423;-67
2021/11/16 05:07:19;;;;;;;34.43;18.50;;;;;;;8.70;64.91;97043.75;5071388;28;20900;-66
2021/11/16 05:09:52;;;;;;;46.90;22.13;;;;;;;8.68;65.46;97044.88;5070911;28;20425;-66
2021/11/16 05:12:18;;;;;;;46.13;21.63;;;;;;;8.73;65.18;97045.28;5069241;28;20473;-67
2021/11/16 05:14:44;;;;;;;38.57;20.40;;;;;;;8.62;65.54;97035.81;5072016;28;20524;-68
2021/11/16 05:17:09;;;;;;;40.50;20.37;;;;;;;8.52;66.02;97035.03;5071272;28;20413;-69
2021/11/16 05:19:35;;;;;;;36.77;20.20;;;;;;;8.33;65.57;97039.31;5071662;28;20178;-66
2021/11/16 05:22:01;;;;;;;42.10;21.00;;;;;;;8.60;65.07;97038.59;5078147;28;20177;-65
2021/11/16 05:24:27;;;;;;;37.53;19.03;;;;;;;8.74;64.55;97039.88;5071644;28;20427;-66
2021/11/16 05:26:52;;;;;;;37.93;19.20;;;;;;;8.58;64.89;97044.91;5079776;28;20206;-66
2021/11/16 05:29:18;;;;;;;39.07;20.37;;;;;;;8.55;65.14;97053.06;5071945;28;20182;-66
2021/11/16 05:31:44;;;;;;;41.70;21.07;;;;;;;8.65;64.63;97046.00;5069558;28;21141;-67
2021/11/16 05:34:09;;;;;;;38.50;21.13;;;;;;;8.57;65.67;97048.47;5071396;28;20660;-65
2021/11/16 05:36:35;;;;;;;39.90;20.60;;;;;;;8.36;65.49;97046.06;5066473;28;20209;-65
2021/11/16 05:39:00;;;;;;;36.87;18.70;;;;;;;8.56;65.55;97052.09;5071065;28;20178;-68
2021/11/16 05:41:26;;;;;;;39.33;19.83;;;;;;;8.26;66.00;97048.69;5071372;28;20185;-66
2021/11/16 05:43:52;;;;;;;38.53;20.37;;;;;;;8.55;65.16;97056.47;5071169;28;20252;-65
2021/11/16 05:46:21;;;;;;;37.13;19.03;;;;;;;8.33;65.97;97051.56;5071334;28;20197;-67
2021/11/16 05:48:48;;;;;;;38.93;20.50;;;;;;;8.47;66.31;97048.50;5070967;28;20178;-66
2021/11/16 05:51:14;;;;;;;38.53;19.20;;;;;;;8.34;65.58;97055.81;5071563;28;20524;-65
2021/11/16 05:53:43;;;;;;;34.13;18.67;;;;;;;8.25;66.80;97054.88;5070707;28;20444;-65
2021/11/16 05:56:09;;;;;;;35.53;18.70;;;;;;;8.50;65.75;97055.25;5079464;28;20542;-65
2021/11/16 05:58:34;;;;;;;34.43;19.07;;;;;;;8.55;65.14;97055.66;5069804;28;20429;-65
2021/11/16 06:01:00;;;;;;;35.80;19.27;;;;;;;8.62;64.95;97056.72;5070563;28;20189;-66
2021/11/16 06:03:25;;;;;;;35.33;19.13;;;;;;;8.68;64.64;97056.16;5070854;28;20601;-68
2021/11/16 06:05:51;;;;;;;38.57;20.70;;;;;;;8.36;66.03;97056.50;5071009;28;20216;-67
2021/11/16 06:08:25;;;;;;;35.50;20.17;;;;;;;8.44;65.07;97054.00;5071025;28;20540;-66
2021/11/16 06:10:52;;;;;;;33.67;19.17;;;;;;;8.30;65.88;97050.06;5070989;28;20177;-65
2021/11/16 06:13:17;;;;;;;40.97;20.33;;;;;;;8.43;65.78;97054.97;5070995;28;20445;-65
2021/11/16 06:15:43;;;;;;;39.90;18.60;;;;;;;8.31;66.15;97049.13;5070939;28;20432;-65
2021/11/16 06:18:09;;;;;;;31.67;17.43;;;;;;;8.15;66.58;97060.13;5078730;28;20210;-67
2021/11/16 06:20:36;;;;;;;38.90;18.00;;;;;;;8.26;65.82;97057.34;5071273;28;20182;-68
2021/11/16 06:23:01;;;;;;;30.90;16.73;;;;;;;8.35;65.64;97060.91;5078092;28;20625;-68
2021/11/16 06:25:27;;;;;;;32.70;18.80;;;;;;;8.33;65.44;97062.81;5077610;28;20456;-65
2021/11/16 06:27:52;;;;;;;32.67;18.03;;;;;;;8.17;65.83;97068.63;5070488;28;20621;-66
2021/11/16 06:30:18;;;;;;;32.83;19.10;;;;;;;8.02;65.79;97076.09;5071044;28;20179;-67
2021/11/16 06:32:43;;;;;;;33.83;18.60;;;;;;;8.17;66.31;97084.31;5066477;28;20202;-67
2021/11/16 06:35:18;;;;;;;35.67;18.67;;;;;;;8.27;65.87;97079.06;5079444;28;20200;-67
2021/11/16 06:37:44;;;;;;;37.63;18.27;;;;;;;7.93;67.06;97077.75;5077693;28;20189;-65
2021/11/16 06:40:10;;;;;;;30.87;17.37;;;;;;;7.45;68.23;97079.38;5072381;28;20916;-66
2021/11/16 06:42:36;;;;;;;34.83;17.90;;;;;;;7.01;69.38;97071.88;5092409;28;20534;-66
2021/11/16 06:45:02;;;;;;;31.10;18.30;;;;;;;7.13;68.92;97077.81;5091299;28;20197;-67
2021/11/16 06:47:28;;;;;;;32.33;18.07;;;;;;;7.21;68.47;97082.38;5091322;28;20438;-66
2021/11/16 06:49:54;;;;;;;34.57;18.70;;;;;;;7.60;67.74;97076.38;5079260;28;20420;-65
2021/11/16 06:52:19;;;;;;;31.43;18.53;;;;;;;7.55;67.65;97079.38;5091523;28;20211;-65
2021/11/16 06:54:46;;;;;;;36.17;18.17;;;;;;;7.60;67.08;97073.75;5091564;28;20586;-65
2021/11/16 06:57:14;;;;;;;31.90;18.27;;;;;;;7.72;66.89;97080.50;5091095;28;20719;-66
2021/11/16 06:59:40;;;;;;;34.00;19.50;;;;;;;7.41;67.48;97078.00;5091143;28;20451;-66
2021/11/16 07:02:06;;;;;;;30.03;18.47;;;;;;;7.82;66.82;97083.09;5089113;28;20424;-65
2021/11/16 07:04:36;;;;;;;34.40;19.10;;;;;;;7.98;66.22;97085.16;5084358;28;20188;-65
2021/11/16 07:07:03;;;;;;;29.13;17.70;;;;;;;7.83;66.04;97085.56;5095023;28;20460;-65
2021/11/16 07:09:34;;;;;;;35.87;19.10;;;;;;;7.47;66.95;97087.88;5094705;28;20428;-65
2021/11/16 07:12:00;;;;;;;31.87;18.73;;;;;;;7.40;67.60;97097.22;5092174;28;20415;-65
2021/11/16 07:14:30;;;;;;;27.73;16.87;;;;;;;7.16;68.31;97089.75;5082182;28;20415;-66
2021/11/16 07:16:59;;;;;;;35.10;18.43;;;;;;;7.46;68.29;97094.06;5093260;28;20427;-66
2021/11/16 07:19:32;;;;;;;32.43;18.03;;;;;;;7.06;68.54;97090.56;5094396;28;20839;-67
2021/11/16 07:22:00;;;;;;;28.53;17.27;;;;;;;6.38;70.71;97085.06;5087493;28;20781;-67
2021/11/16 07:24:27;;;;;;;31.80;16.87;;;;;;;6.80;69.55;97091.97;5076206;28;20416;-66
2021/11/16 07:26:59;;;;;;;31.53;17.90;;;;;;;6.92;69.64;97088.31;5092900;28;20458;-66
2021/11/16 07:29:44;;;;;;;37.63;16.27;;;;;;;7.05;68.48;97094.13;5094086;28;21031;-66
2021/11/16 07:32:13;;;;;;;34.20;18.30;;;;;;;6.51;71.05;97105.69;5094383;28;20423;-65
2021/11/16 07:34:39;;;;;;;35.47;18.63;;;;;;;6.50;71.08;97107.47;5070480;28;20970;-66
2021/11/16 07:37:08;;;;;;;38.03;19.10;;;;;;;7.07;69.64;97113.06;5078984;28;20490;-66
2021/11/16 07:40:10;;;;;;;31.50;17.27;;;;;;;6.98;69.31;97113.03;5087750;28;20444;-65
2021/11/16 07:43:15;;;;;;;36.90;19.37;;;;;;;7.72;67.13;97109.19;5086324;28;20459;-67
2021/11/16 07:45:49;;;;;;;36.67;17.90;;;;;;;8.06;66.46;97114.00;5064113;28;20468;-67
2021/11/16 07:48:18;;;;;;;40.60;19.60;;;;;;;8.11;65.59;97103.16;5018129;28;21006;-66
2021/11/16 07:50:44;;;;;;;35.80;18.43;;;;;;;8.02;65.94;97106.56;5065143;28;20517;-65
2021/11/16 07:53:21;;;;;;;33.80;18.87;;;;;;;8.21;65.21;97110.94;5035073;28;20535;-65
2021/11/16 07:55:52;;;;;;;39.30;19.70;;;;;;;8.37;64.93;97102.56;5051767;28;20182;-65
2021/11/16 07:58:19;;;;;;;34.80;18.10;;;;;;;8.49;64.64;97116.28;5051800;28;20429;-65
2021/11/16 08:00:47;;;;;;;38.97;19.60;;;;;;;8.12;65.21;97112.63;5049249;28;20438;-65
2021/11/16 08:03:20;;;;;;;33.23;18.97;;;;;;;8.15;65.37;97117.53;5054008;28;20855;-65
2021/11/16 08:06:07;;;;;;;33.17;18.87;;;;;;;8.07;65.56;97113.03;5059504;28;20460;-66
2021/11/16 08:08:39;;;;;;;38.50;20.17;;;;;;;8.27;64.99;97113.81;5047753;28;20869;-66
2021/11/16 08:11:14;;;;;;;35.20;18.77;;;;;;;8.37;64.93;97113.81;5043457;28;20430;-67
2021/11/16 08:13:58;;;;;;;41.47;20.40;;;;;;;7.25;68.35;97119.41;5049287;28;20448;-68
2021/11/16 08:16:24;;;;;;;37.27;18.53;;;;;;;7.22;68.70;97117.91;5057381;28;20412;-69
2021/11/16 08:18:55;;;;;;;36.77;18.73;;;;;;;7.84;66.19;97115.09;5090764;28;20494;-68
2021/11/16 08:21:22;;;;;;;43.27;17.60;;;;;;;8.09;65.76;97125.94;5089032;28;20919;-66
2021/11/16 08:23:56;;;;;;;41.63;19.00;;;;;;;7.41;67.79;97118.91;5086437;28;20990;-67
2021/11/16 08:26:24;;;;;;;38.60;20.30;;;;;;;7.53;66.73;97116.03;5093251;28;20497;-65
2021/11/16 08:28:51;;;;;;;34.57;17.90;;;;;;;7.69;67.41;97122.50;5092471;28;20428;-65
2021/11/16 08:31:17;;;;;;;38.67;18.23;;;;;;;8.12;66.31;97113.44;5091446;28;20527;-65
2021/11/16 08:33:43;;;;;;;39.80;18.13;;;;;;;8.30;65.57;97118.78;5073723;28;21001;-69
2021/11/16 08:36:10;;;;;;;42.03;19.60;;;;;;;8.49;64.16;97119.75;5092551;28;20521;-64
2021/11/16 08:38:36;;;;;;;34.60;17.83;;;;;;;7.76;66.36;97126.22;5092897;28;20736;-68
2021/11/16 08:41:02;;;;;;;37.27;17.87;;;;;;;8.19;65.54;97126.75;5082299;28;20424;-66
2021/11/16 08:43:36;;;;;;;40.70;16.90;;;;;;;7.64;66.72;97122.09;5075068;28;20444;-67
2021/11/16 08:46:04;;;;;;;30.63;14.60;;;;;;;7.50;66.73;97131.13;5059450;28;20464;-67
2021/11/16 08:48:30;;;;;;;33.60;15.07;;;;;;;7.79;66.66;97125.97;5074422;28;20420;-68
2021/11/16 08:51:02;;;;;;;31.43;15.77;;;;;;;8.10;65.58;97125.00;5090937;28;20428;-66
2021/11/16 08:53:31;;;;;;;30.10;15.37;;;;;;;7.74;66.09;97122.09;5057037;28;20508;-65
2021/11/16 08:55:57;;;;;;;24.20;12.80;;;;;;;7.93;65.47;97123.91;5092456;28;20766;-66
2021/11/16 08:58:28;;;;;;;27.63;13.97;;;;;;;7.73;65.76;97126.50;5092219;28;20751;-65
2021/11/16 09:00:57;;;;;;;21.97;12.27;;;;;;;7.84;65.07;97125.53;5092055;28;20427;-67
2021/11/16 09:03:28;;;;;;;26.83;12.97;;;;;;;7.94;65.42;97128.16;5091653;28;20446;-66
2021/11/16 09:05:56;;;;;;;29.43;12.27;;;;;;;7.62;65.36;97131.84;5086895;28;20463;-67
2021/11/16 09:08:25;;;;;;;21.27;11.40;;;;;;;7.52;66.27;97130.03;5091778;28;20798;-67
2021/11/16 09:11:15;;;;;;;23.37;12.40;;;;;;;7.56;66.02;97116.75;5089289;28;20440;-68
2021/11/16 09:13:42;;;;;;;20.03;10.90;;;;;;;7.74;65.46;97120.31;5090973;28;20448;-66
2021/11/16 09:16:17;;;;;;;20.33;11.13;;;;;;;7.75;64.78;97127.19;5075677;28;20413;-67
2021/11/16 09:18:50;;;;;;;17.67;9.23;;;;;;;8.02;64.54;97120.47;5090487;28;20426;-66
2021/11/16 09:21:22;;;;;;;20.73;10.50;;;;;;;8.07;63.51;97122.66;5065512;28;20429;-68
2021/11/16 09:23:51;;;;;;;20.53;9.70;;;;;;;8.26;63.06;97113.97;5072820;28;20447;-69
2021/11/16 09:29:03;;;;;;;19.20;9.60;;;;;;;8.05;64.24;97116.75;5082372;28;20490;-68
2021/11/16 09:31:33;;;;;;;21.03;11.10;;;;;;;8.51;62.62;97112.56;5090314;28;20754;-67
2021/11/16 09:34:07;;;;;;;19.27;10.83;;;;;;;8.62;61.99;97116.00;5091640;28;20443;-67
2021/11/16 09:36:37;;;;;;;19.00;9.47;;;;;;;8.89;61.14;97102.13;5092004;28;20442;-68
2021/11/16 09:39:17;;;;;;;15.70;9.30;;;;;;;8.69;61.46;97114.44;5091068;28;20926;-67
2021/11/16 09:41:54;;;;;;;19.37;10.07;;;;;;;7.65;65.20;97113.31;5088695;28;20415;-67
2021/11/16 09:44:22;;;;;;;14.90;9.43;;;;;;;7.77;63.78;97112.22;5077304;28;20459;-66
2021/11/16 09:47:04;;;;;;;21.00;10.00;;;;;;;7.88;64.14;97110.44;5081314;28;20510;-66
2021/11/16 09:49:37;;;;;;;18.03;8.87;;;;;;;7.83;64.58;97116.06;5084152;28;20451;-66
2021/11/16 09:52:13;;;;;;;22.17;9.30;;;;;;;8.03;63.49;97116.88;5091523;28;20542;-67
2021/11/16 09:54:56;;;;;;;22.70;10.27;;;;;;;8.01;63.85;97113.59;5091948;28;20415;-66
2021/11/16 09:57:25;;;;;;;20.63;9.27;;;;;;;8.09;63.24;97118.94;5077399;28;20776;-66
2021/11/16 09:59:56;;;;;;;14.33;8.40;;;;;;;8.01;63.65;97124.03;5091165;28;20843;-67
2021/11/16 10:02:27;;;;;;;13.97;8.77;;;;;;;7.77;64.47;97114.84;5073152;28;20489;-67
2021/11/16 10:04:54;;;;;;;13.87;8.33;;;;;;;8.24;62.92;97114.13;5087871;28;20416;-68
2021/11/16 10:07:21;;;;;;;28.67;12.17;;;;;;;8.30;62.43;97118.78;5089305;28;20538;-68
2021/11/16 10:09:49;;;;;;;19.30;10.40;;;;;;;7.96;63.68;97107.94;5089053;28;20424;-67
2021/11/16 10:12:17;;;;;;;19.97;9.53;;;;;;;8.17;63.46;97107.78;5073050;28;20435;-68
2021/11/16 10:14:44;;;;;;;20.00;9.60;;;;;;;7.62;64.22;97117.03;5086869;28;20425;-65
2021/11/16 10:17:10;;;;;;;17.13;9.07;;;;;;;7.77;64.99;97099.19;5089246;28;20457;-68
2021/11/16 10:19:35;;;;;;;22.33;9.97;;;;;;;7.29;66.31;97097.34;5089002;28;20444;-68
2021/11/16 10:22:01;;;;;;;22.10;10.47;;;;;;;7.25;66.58;97093.34;5083475;28;20267;-66
2021/11/16 10:24:31;;;;;;;20.33;10.00;;;;;;;7.54;66.24;97085.56;5090510;28;20197;-68
2021/11/16 10:27:00;;;;;;;15.83;8.77;;;;;;;7.67;65.85;97087.91;5090269;28;20573;-67
2021/11/16 10:29:25;;;;;;;19.90;9.87;;;;;;;7.61;66.05;97093.66;5089269;28;20431;-67
2021/11/16 10:31:51;;;;;;;21.63;8.67;;;;;;;7.39;66.34;97095.56;5090217;28;20423;-71
2021/11/16 10:34:17;;;;;;;16.23;9.37;;;;;;;7.83;65.19;97105.63;5082477;28;20204;-67
2021/11/16 10:36:43;;;;;;;16.60;10.60;;;;;;;7.69;65.10;97091.19;5089485;28;20441;-68
2021/11/16 10:39:08;;;;;;;16.73;9.83;;;;;;;7.67;64.47;97093.13;5092798;28;20185;-65
2021/11/16 10:41:37;;;;;;;17.77;9.90;;;;;;;8.15;63.05;97091.44;5091453;28;20273;-66
2021/11/16 10:44:08;;;;;;;19.97;8.50;;;;;;;7.78;63.88;97095.59;5084943;28;20242;-69
2021/11/16 10:46:40;;;;;;;17.20;8.70;;;;;;;7.88;63.93;97085.16;5094347;28;20444;-69
2021/11/16 10:49:14;;;;;;;13.40;8.43;;;;;;;8.08;63.66;97085.16;5093526;28;20412;-66
2021/11/16 10:51:43;;;;;;;14.30;8.70;;;;;;;8.58;62.25;97081.47;5094930;28;20472;-67
2021/11/16 10:54:11;;;;;;;24.43;8.70;;;;;;;8.84;61.41;97080.81;5094364;28;20451;-66
2021/11/16 10:56:38;;;;;;;13.93;7.80;;;;;;;9.21;61.04;97077.34;5086059;28;20423;-66
2021/11/16 10:59:13;;;;;;;15.17;8.80;;;;;;;9.22;60.43;97084.22;5092787;28;20427;-66
2021/11/16 11:01:50;;;;;;;10.90;6.83;;;;;;;9.38;59.41;97079.16;5094681;28;20416;-68
2021/11/16 11:04:22;;;;;;;16.67;7.47;;;;;;;9.42;58.83;97081.50;5087597;28;20510;-66
2021/11/16 11:06:50;;;;;;;15.20;7.67;;;;;;;9.37;58.93;97077.53;5090995;28;20898;-66
2021/11/16 11:09:17;;;;;;;9.83;6.50;;;;;;;9.34;59.04;97077.81;5078409;28;20422;-66
2021/11/16 11:11:47;;;;;;;13.93;6.53;;;;;;;9.24;59.30;97077.06;5091589;28;20420;-66
2021/11/16 11:14:17;;;;;;;17.23;11.60;;;;;;;9.07;59.84;97071.63;5093836;28;20436;-67
2021/11/16 11:16:53;;;;;;;12.97;8.03;;;;;;;9.28;59.24;97075.78;5085878;28;20914;-66
2021/11/16 11:19:21;;;;;;;11.87;6.90;;;;;;;9.37;58.80;97066.25;5093511;28;20458;-67
2021/11/16 11:21:55;;;;;;;13.20;7.60;;;;;;;9.47;58.28;97066.16;5086081;28;20428;-66
2021/11/16 11:24:29;;;;;;;15.23;8.97;;;;;;;9.50;57.88;97060.63;5086518;28;20435;-66
2021/11/16 11:26:58;;;;;;;9.57;6.30;;;;;;;9.51;57.68;97062.28;5085552;28;20466;-66
2021/11/16 11:29:35;;;;;;;11.07;7.10;;;;;;;9.56;58.01;97064.44;5094258;28;21102;-66
2021/11/16 11:32:12;;;;;;;11.70;8.37;;;;;;;9.41;58.81;97067.56;5093697;28;20568;-68
2021/11/16 11:35:00;;;;;;;12.43;7.63;;;;;;;9.43;58.84;97065.63;5093992;28;20423;-66
2021/11/16 11:37:42;;;;;;;8.50;5.97;;;;;;;9.57;58.76;97072.16;5093887;28;20435;-67
2021/11/16 11:40:09;;;;;;;12.40;6.80;;;;;;;9.55;58.14;97066.25;5080695;28;20556;-67
2021/11/16 11:42:39;;;;;;;13.33;7.90;;;;;;;9.53;58.03;97071.63;5094110;28;20534;-66
2021/11/16 11:45:24;;;;;;;13.60;6.87;;;;;;;9.50;57.98;97061.47;5093819;28;20416;-68
2021/11/16 11:48:18;;;;;;;12.70;7.80;;;;;;;9.07;59.71;97066.41;5085110;28;20424;-67